createdAt,value
2019-01-23T08:26:11.376Z,990.11
2019-01-23T08:29:13.103Z,990.15
2019-01-23T08:32:11.084Z,990.12
2019-01-23T08:35:10.853Z,990.18
2019-01-23T08:38:10.734Z,990.15
2019-01-23T08:41:10.389Z,990.07
2019-01-23T08:44:10.106Z,990.10
2019-01-23T08:47:09.826Z,990.13
2019-01-23T08:50:09.514Z,990.09
2019-01-23T08:53:09.145Z,990.07
2019-01-23T08:56:08.942Z,990.13
2019-01-23T09:04:10.193Z,990.23
2019-01-23T09:07:07.846Z,990.18
2019-01-23T09:10:09.668Z,990.18
2019-01-23T09:13:33.482Z,990.19
2019-01-23T09:16:11.605Z,990.30
2019-01-23T09:50:34.596Z,990.35
2019-01-23T09:53:35.289Z,990.36
2019-01-23T09:56:34.631Z,990.37
2019-01-23T09:59:34.722Z,990.37
2019-01-23T10:02:34.691Z,990.35
2019-01-23T10:05:34.807Z,990.40
2019-01-23T10:08:34.746Z,990.43
2019-01-23T10:11:34.607Z,990.45
2019-01-23T10:14:34.717Z,990.52
2019-01-23T10:17:34.702Z,990.44
2019-01-23T10:20:34.754Z,990.50
2019-01-23T10:23:34.680Z,990.51
2019-01-23T10:32:34.861Z,990.60
2019-01-23T10:35:23.924Z,990.58
2019-01-23T10:38:29.702Z,990.53
2019-01-23T10:41:26.824Z,990.57
2019-01-23T10:44:28.683Z,990.49
2019-01-23T10:58:26.558Z,990.64
2019-01-23T11:01:30.148Z,990.67
2019-01-23T11:05:02.119Z,990.74
2019-01-23T11:07:26.454Z,990.59
2019-01-23T11:10:28.622Z,990.63
2019-01-23T11:13:27.665Z,990.72
2019-01-23T11:16:27.147Z,990.68
2019-01-23T11:19:34.427Z,990.64
2019-01-23T13:20:07.371Z,990.67
2019-01-23T13:23:09.523Z,990.75
2019-01-23T13:26:06.485Z,990.76
2019-01-23T13:29:06.133Z,990.84
2019-01-23T13:32:05.722Z,990.83
2019-01-23T13:35:05.198Z,990.80
2019-01-23T13:38:04.826Z,990.78
2019-01-23T13:41:04.284Z,990.78
2019-01-23T13:44:04.139Z,990.89
2019-01-23T13:47:03.330Z,990.90
2019-01-23T13:50:02.776Z,990.88
2019-01-23T13:53:02.446Z,990.93
2019-01-23T13:56:01.887Z,990.91
2019-01-23T13:59:01.948Z,990.93
2019-01-23T14:02:00.974Z,990.93
2019-01-23T14:05:00.546Z,990.99
2019-01-23T14:08:00.167Z,991.02
2019-01-23T14:10:59.676Z,991.01
2019-01-23T14:13:59.300Z,991.02
2019-01-23T14:16:58.742Z,991.06
2019-01-23T14:20:00.457Z,991.17
2019-01-23T14:22:57.998Z,991.16
2019-01-23T14:25:57.309Z,991.23
2019-01-23T14:28:56.955Z,991.23
2019-01-23T14:32:03.073Z,991.25
2019-01-23T14:34:57.441Z,991.30
2019-01-23T14:38:00.515Z,991.38
2019-01-23T14:40:55.919Z,991.40
2019-01-23T14:43:54.497Z,991.42
2019-01-23T14:46:54.116Z,991.37
2019-01-23T14:49:53.746Z,991.45
2019-01-23T14:52:53.157Z,991.49
2019-01-23T14:59:27.702Z,991.53
2019-01-23T15:02:25.355Z,991.54
2019-01-23T15:05:24.519Z,991.57
2019-01-23T15:08:25.031Z,991.53
2019-01-23T15:11:25.380Z,991.58
2019-01-23T15:14:24.956Z,991.65
2019-01-23T15:17:25.298Z,991.70
2019-01-23T15:20:24.529Z,991.70
2019-01-23T15:23:24.559Z,991.81
2019-01-23T15:26:24.705Z,991.74
2019-01-23T15:29:24.203Z,991.78
2019-01-23T15:32:24.477Z,991.86
2019-01-23T15:35:23.778Z,991.91
2019-01-23T15:38:23.129Z,991.87
2019-01-23T15:41:23.054Z,991.89
2019-01-23T15:44:22.862Z,991.94
2019-01-23T15:47:23.650Z,991.91
2019-01-23T15:50:23.268Z,991.90
2019-01-23T15:53:23.083Z,992.08
2019-01-23T15:56:22.386Z,992.17
2019-01-23T15:59:22.886Z,992.14
2019-01-23T16:02:24.379Z,992.20
